Time;durP1;ratioP1;P1;durP2;ratioP2;P2;SDS_P1;SDS_P2;PMS_P1;PMS_P2;Temp;Humidity;BMP_temperature;BMP_pressure;BME280_temperature;BME280_humidity;BME280_pressure;Samples;Min_cycle;Max_cycle;Signal;HPM_P1;HPM_P2
2023/03/24 00:02:17;;;;;;;5.32;4.82;;;;;;;;;;4964913;28;20049;-67
2023/03/24 00:04:48;;;;;;;7.03;4.55;;;;;;;;;;4972035;28;20030;-67
2023/03/24 00:07:14;;;;;;;5.40;4.90;;;;;;;;;;4974102;28;20043;-67
2023/03/24 00:09:42;;;;;;;6.05;4.53;;;;;;;;;;4967515;28;20039;-67
2023/03/24 00:12:12;;;;;;;4.90;4.50;;;;;;;;;;4968862;28;20035;-67
2023/03/24 00:14:39;;;;;;;5.53;5.03;;;;;;;;;;4972351;28;20026;-67
2023/03/24 00:17:12;;;;;;;5.30;4.80;;;;;;;;;;4981512;28;20031;-67
2023/03/24 00:19:38;;;;;;;5.40;4.90;;;;;;;;;;4968008;28;20046;-67
2023/03/24 00:22:05;;;;;;;5.05;4.53;;;;;;;;;;4971930;28;20469;-68
2023/03/24 00:24:32;;;;;;;4.78;4.38;;;;;;;;;;4970616;28;20041;-68
2023/03/24 00:26:57;;;;;;;5.50;5.00;;;;;;;;;;4967494;28;20061;-67
2023/03/24 00:29:24;;;;;;;5.57;5.07;;;;;;;;;;4968514;28;20098;-67
2023/03/24 00:31:51;;;;;;;4.97;4.57;;;;;;;;;;4973721;28;20998;-68
2023/03/24 00:34:20;;;;;;;4.85;4.45;;;;;;;;;;4955608;28;20088;-67
2023/03/24 00:36:50;;;;;;;5.40;4.90;;;;;;;;;;4968271;28;20143;-67
2023/03/24 00:39:19;;;;;;;5.40;4.88;;;;;;;;;;4971952;28;20554;-67
2023/03/24 00:41:46;;;;;;;4.75;4.32;;;;;;;;;;4969453;28;20059;-67
2023/03/24 00:44:17;;;;;;;4.47;4.07;;;;;;;;;;4963711;28;20043;-67
2023/03/24 00:46:44;;;;;;;4.97;4.57;;;;;;;;;;4982921;28;20035;-67
2023/03/24 00:49:11;;;;;;;4.95;4.55;;;;;;;;;;4980218;28;20153;-67
2023/03/24 00:51:39;;;;;;;8.25;4.82;;;;;;;;;;4981761;28;20043;-67
2023/03/24 00:54:08;;;;;;;5.32;4.82;;;;;;;;;;4970163;28;20682;-67
2023/03/24 00:56:36;;;;;;;4.85;4.45;;;;;;;;;;4968767;28;20443;-67
2023/03/24 00:59:03;;;;;;;5.28;4.78;;;;;;;;;;4985073;28;20066;-67
2023/03/24 01:01:33;;;;;;;5.22;4.72;;;;;;;;;;4966961;28;20034;-67
2023/03/24 01:04:00;;;;;;;4.78;4.38;;;;;;;;;;4970500;28;20499;-67
2023/03/24 01:06:25;;;;;;;4.72;4.32;;;;;;;;;;4978767;28;20042;-67
2023/03/24 01:08:52;;;;;;;5.97;4.50;;;;;;;;;;4976892;28;20395;-66
2023/03/24 01:11:24;;;;;;;5.20;4.68;;;;;;;;;;4974137;28;20035;-68
2023/03/24 01:13:52;;;;;;;5.20;4.53;;;;;;;;;;4974649;28;20043;-68
2023/03/24 01:16:18;;;;;;;4.82;4.45;;;;;;;;;;4974683;28;20084;-68
2023/03/24 01:18:44;;;;;;;4.75;4.35;;;;;;;;;;4987419;28;20414;-68
2023/03/24 01:21:11;;;;;;;4.97;4.57;;;;;;;;;;4973027;28;20039;-68
2023/03/24 01:23:40;;;;;;;5.03;4.63;;;;;;;;;;4973399;28;20042;-67
2023/03/24 01:26:08;;;;;;;4.72;4.32;;;;;;;;;;4974772;28;20042;-68
2023/03/24 01:28:39;;;;;;;8.18;4.85;;;;;;;;;;4974044;28;20039;-67
2023/03/24 01:31:07;;;;;;;5.72;4.70;;;;;;;;;;4979846;28;20090;-68
2023/03/24 01:33:33;;;;;;;5.18;4.68;;;;;;;;;;4978631;28;20113;-68
2023/03/24 01:36:00;;;;;;;4.93;4.53;;;;;;;;;;4972118;28;20945;-67
2023/03/24 01:38:26;;;;;;;4.68;4.25;;;;;;;;;;4992631;28;20030;-66
2023/03/24 01:40:54;;;;;;;4.60;4.30;;;;;;;;;;4977238;28;20030;-68
2023/03/24 01:43:29;;;;;;;5.05;4.60;;;;;;;;;;4975483;28;20126;-67
2023/03/24 01:46:08;;;;;;;6.35;4.68;;;;;;;;;;4973328;28;20058;-68
2023/03/24 01:49:06;;;;;;;9.15;4.65;;;;;;;;;;4981961;28;20082;-67
2023/03/24 01:51:43;;;;;;;4.43;4.03;;;;;;;;;;4976858;28;20069;-67
2023/03/24 01:54:20;;;;;;;4.78;4.38;;;;;;;;;;4973055;28;20062;-67
2023/03/24 01:56:52;;;;;;;;;;;;;;;;;;4984636;28;20043;-67
2023/03/24 01:59:22;;;;;;;5.72;4.68;;;;;;;;;;4993995;28;19971;-67
2023/03/24 02:02:12;;;;;;;5.03;4.63;;;;;;;;;;4969618;28;20046;-67
2023/03/24 02:04:54;;;;;;;5.18;4.68;;;;;;;;;;4974297;28;20035;-67
2023/03/24 02:07:52;;;;;;;5.07;4.68;;;;;;;;;;4988154;28;20043;-67
2023/03/24 02:10:20;;;;;;;4.90;4.40;;;;;;;;;;4988798;28;20038;-67
2023/03/24 02:12:46;;;;;;;4.70;4.30;;;;;;;;;;4974237;28;20031;-67
2023/03/24 02:15:17;;;;;;;5.05;4.60;;;;;;;;;;4972406;28;20039;-67
2023/03/24 02:17:53;;;;;;;5.65;4.25;;;;;;;;;;4985525;28;20062;-67
2023/03/24 02:20:38;;;;;;;4.82;4.43;;;;;;;;;;4988308;28;20486;-67
2023/03/24 02:23:16;;;;;;;4.70;4.40;;;;;;;;;;4972057;28;20435;-68
2023/03/24 02:25:59;;;;;;;4.63;4.32;;;;;;;;;;4985313;28;20122;-67
2023/03/24 02:28:49;;;;;;;4.63;4.22;;;;;;;;;;4986528;28;20039;-67
2023/03/24 02:31:52;;;;;;;5.20;4.80;;;;;;;;;;4984619;28;20031;-67
2023/03/24 02:34:27;;;;;;;5.05;4.60;;;;;;;;;;4970485;28;20049;-67
2023/03/24 02:37:11;;;;;;;4.95;4.40;;;;;;;;;;4968948;28;20061;-67
2023/03/24 02:40:03;;;;;;;5.22;4.80;;;;;;;;;;4975274;28;20034;-68
2023/03/24 02:42:41;;;;;;;4.95;4.47;;;;;;;;;;4965041;28;20049;-67
2023/03/24 02:45:50;;;;;;;6.05;4.72;;;;;;;;;;4968640;28;20562;-68
2023/03/24 02:48:22;;;;;;;5.35;4.32;;;;;;;;;;4985470;28;20066;-67
2023/03/24 02:51:05;;;;;;;5.00;4.50;;;;;;;;;;4971996;28;20039;-67
2023/03/24 02:53:50;;;;;;;4.30;4.00;;;;;;;;;;4969640;28;20046;-67
2023/03/24 02:56:39;;;;;;;4.57;4.18;;;;;;;;;;4986631;28;20039;-68
2023/03/24 02:59:43;;;;;;;5.10;4.30;;;;;;;;;;4971852;28;20043;-68
2023/03/24 03:02:55;;;;;;;4.75;4.35;;;;;;;;;;4964806;28;20070;-68
2023/03/24 03:05:31;;;;;;;4.45;4.05;;;;;;;;;;4987692;28;20045;-68
2023/03/24 03:08:00;;;;;;;4.50;4.15;;;;;;;;;;4970554;28;20027;-67
2023/03/24 03:10:30;;;;;;;4.47;4.05;;;;;;;;;;4967437;28;20580;-67
2023/03/24 03:12:59;;;;;;;4.93;4.30;;;;;;;;;;4968825;28;20093;-67
2023/03/24 03:15:34;;;;;;;4.68;4.28;;;;;;;;;;4987707;28;20390;-68
2023/03/24 03:18:27;;;;;;;4.63;4.22;;;;;;;;;;4986494;28;20043;-68
2023/03/24 03:21:01;;;;;;;4.60;4.30;;;;;;;;;;4969363;28;20034;-67
2023/03/24 03:23:48;;;;;;;4.78;4.38;;;;;;;;;;4975250;28;20037;-68
2023/03/24 03:26:18;;;;;;;4.72;4.20;;;;;;;;;;4973468;28;20041;-68
2023/03/24 03:28:49;;;;;;;4.70;4.30;;;;;;;;;;4962806;28;20628;-67
2023/03/24 03:31:23;;;;;;;4.90;4.50;;;;;;;;;;4969521;28;20030;-67
2023/03/24 03:33:59;;;;;;;4.55;4.25;;;;;;;;;;4970689;28;20031;-68
2023/03/24 03:36:33;;;;;;;5.13;4.63;;;;;;;;;;4956328;28;20490;-67
2023/03/24 03:39:08;;;;;;;4.28;3.92;;;;;;;;;;4967204;28;20058;-67
2023/03/24 03:41:36;;;;;;;5.00;4.60;;;;;;;;;;4967443;28;20610;-67
2023/03/24 03:44:01;;;;;;;7.85;4.70;;;;;;;;;;4972735;28;20118;-67
2023/03/24 03:46:27;;;;;;;6.53;4.85;;;;;;;;;;4965801;28;20679;-68
2023/03/24 03:48:54;;;;;;;4.75;4.35;;;;;;;;;;4971418;28;20034;-68
2023/03/24 03:51:20;;;;;;;6.05;4.53;;;;;;;;;;4972264;28;20031;-67
2023/03/24 03:53:57;;;;;;;4.95;4.45;;;;;;;;;;4969674;28;20042;-68
2023/03/24 03:56:26;;;;;;;4.60;4.30;;;;;;;;;;4968375;28;20042;-67
2023/03/24 03:59:35;;;;;;;5.10;4.60;;;;;;;;;;4966163;28;20042;-67
2023/03/24 04:02:41;;;;;;;4.45;4.05;;;;;;;;;;4971242;28;20042;-68
2023/03/24 04:05:13;;;;;;;6.38;4.32;;;;;;;;;;4982920;28;20073;-67
2023/03/24 04:07:51;;;;;;;4.95;4.55;;;;;;;;;;4973341;28;20041;-67
2023/03/24 04:10:53;;;;;;;4.60;4.20;;;;;;;;;;4972091;28;20113;-67
2023/03/24 04:13:51;;;;;;;4.95;4.40;;;;;;;;;;4967111;28;20038;-68
2023/03/24 04:17:02;;;;;;;4.50;4.15;;;;;;;;;;4971080;28;20457;-68
2023/03/24 04:19:45;;;;;;;4.85;4.22;;;;;;;;;;4979403;28;20046;-68
2023/03/24 04:22:24;;;;;;;4.95;4.55;;;;;;;;;;4970710;28;20053;-68
2023/03/24 04:25:24;;;;;;;4.75;4.43;;;;;;;;;;4983266;28;20169;-68
2023/03/24 04:28:08;;;;;;;4.72;4.32;;;;;;;;;;4987965;28;20030;-68
2023/03/24 04:30:41;;;;;;;4.90;4.50;;;;;;;;;;4974502;28;20039;-67
2023/03/24 04:33:08;;;;;;;4.53;4.20;;;;;;;;;;4965803;28;20047;-68
2023/03/24 04:35:44;;;;;;;5.13;4.63;;;;;;;;;;4973265;28;20580;-68
2023/03/24 04:38:26;;;;;;;5.20;4.70;;;;;;;;;;4975801;28;20041;-68
2023/03/24 04:41:20;;;;;;;6.63;4.75;;;;;;;;;;4965178;28;20126;-68
2023/03/24 04:43:58;;;;;;;4.95;4.55;;;;;;;;;;4981937;28;20031;-68
2023/03/24 04:46:24;;;;;;;8.10;4.70;;;;;;;;;;4969867;28;20042;-68
2023/03/24 04:49:01;;;;;;;4.72;4.32;;;;;;;;;;4974884;28;20057;-67
2023/03/24 04:51:33;;;;;;;4.45;4.05;;;;;;;;;;4968875;28;20037;-68
2023/03/24 04:54:03;;;;;;;4.70;4.30;;;;;;;;;;4966507;28;20736;-67
2023/03/24 04:56:46;;;;;;;4.45;4.10;;;;;;;;;;4970308;28;20434;-67
2023/03/24 04:59:32;;;;;;;4.53;4.13;;;;;;;;;;4967839;28;20043;-68
2023/03/24 05:01:59;;;;;;;5.07;4.57;;;;;;;;;;4962382;28;20081;-67
2023/03/24 05:04:38;;;;;;;6.10;4.50;;;;;;;;;;4984553;28;20084;-67
2023/03/24 05:07:31;;;;;;;4.70;4.30;;;;;;;;;;4963659;28;20047;-67
2023/03/24 05:09:59;;;;;;;4.97;4.28;;;;;;;;;;4965245;28;20046;-67
2023/03/24 05:12:25;;;;;;;4.57;4.18;;;;;;;;;;4966720;28;20046;-67
2023/03/24 05:15:20;;;;;;;5.28;4.40;;;;;;;;;;4959561;28;20054;-67
2023/03/24 05:17:51;;;;;;;4.80;4.40;;;;;;;;;;4960996;28;20047;-67
2023/03/24 05:20:18;;;;;;;4.68;4.32;;;;;;;;;;4966800;28;20102;-67
2023/03/24 05:22:48;;;;;;;5.07;4.55;;;;;;;;;;4968222;28;20058;-66
2023/03/24 05:25:15;;;;;;;4.93;4.50;;;;;;;;;;4964988;28;20039;-67
2023/03/24 05:27:41;;;;;;;4.90;4.50;;;;;;;;;;4966451;28;20399;-67
2023/03/24 05:30:20;;;;;;;;;;;;;;;;;;4967431;28;20043;-66
2023/03/24 05:32:52;;;;;;;4.75;4.35;;;;;;;;;;4980451;28;20527;-67
2023/03/24 05:35:18;;;;;;;5.22;4.82;;;;;;;;;;4967366;28;20030;-67
2023/03/24 05:37:43;;;;;;;5.18;4.68;;;;;;;;;;4964873;28;20038;-67
2023/03/24 05:40:10;;;;;;;5.43;4.85;;;;;;;;;;4984338;28;20094;-67
2023/03/24 05:43:00;;;;;;;5.00;4.70;;;;;;;;;;4963329;28;20737;-67
2023/03/24 05:45:30;;;;;;;5.30;4.90;;;;;;;;;;4961237;28;20054;-67
2023/03/24 05:47:58;;;;;;;5.45;5.00;;;;;;;;;;4982240;28;20038;-67
2023/03/24 05:50:36;;;;;;;5.40;4.93;;;;;;;;;;4965882;28;20034;-66
2023/03/24 05:53:02;;;;;;;5.50;5.00;;;;;;;;;;4977358;28;20089;-67
2023/03/24 05:55:48;;;;;;;5.70;5.25;;;;;;;;;;4970097;28;20430;-66
2023/03/24 05:58:38;;;;;;;5.28;4.88;;;;;;;;;;4974741;28;20058;-67
2023/03/24 06:01:09;;;;;;;5.18;4.68;;;;;;;;;;4975159;28;20062;-67
2023/03/24 06:03:40;;;;;;;5.15;4.78;;;;;;;;;;4963113;28;20035;-67
2023/03/24 06:06:13;;;;;;;5.10;4.60;;;;;;;;;;4988872;28;20038;-67
2023/03/24 06:08:39;;;;;;;5.43;4.93;;;;;;;;;;4969391;28;20041;-67
2023/03/24 06:11:06;;;;;;;5.68;5.28;;;;;;;;;;4973678;28;20042;-67
2023/03/24 06:13:39;;;;;;;5.53;5.05;;;;;;;;;;4969741;28;20119;-66
2023/03/24 06:16:06;;;;;;;5.55;5.00;;;;;;;;;;4971566;28;20043;-67
2023/03/24 06:18:39;;;;;;;6.13;5.53;;;;;;;;;;4973691;28;20039;-67
2023/03/24 06:21:12;;;;;;;5.57;5.18;;;;;;;;;;4973933;28;20066;-67
2023/03/24 06:23:41;;;;;;;5.15;4.70;;;;;;;;;;4967649;28;20440;-67
2023/03/24 06:26:10;;;;;;;5.53;5.13;;;;;;;;;;4972147;28;20043;-67
2023/03/24 06:28:43;;;;;;;5.68;5.18;;;;;;;;;;4966911;28;20050;-67
2023/03/24 06:31:17;;;;;;;7.70;5.25;;;;;;;;;;4971261;28;20387;-67
2023/03/24 06:33:43;;;;;;;6.20;5.60;;;;;;;;;;4956204;28;20510;-67
2023/03/24 06:36:11;;;;;;;5.90;5.40;;;;;;;;;;4978574;28;20376;-67
2023/03/24 06:38:36;;;;;;;6.00;5.50;;;;;;;;;;4976694;28;20048;-67
2023/03/24 06:41:04;;;;;;;5.60;5.10;;;;;;;;;;4973174;28;20034;-67
2023/03/24 06:43:31;;;;;;;5.78;5.22;;;;;;;;;;4975235;28;20038;-67
2023/03/24 06:45:57;;;;;;;7.30;5.32;;;;;;;;;;4967532;28;20062;-67
2023/03/24 06:48:24;;;;;;;8.07;5.55;;;;;;;;;;4985289;28;20030;-67
2023/03/24 06:50:57;;;;;;;5.80;5.30;;;;;;;;;;4969985;28;20046;-67
2023/03/24 06:53:23;;;;;;;5.95;5.45;;;;;;;;;;4971478;28;20034;-67
2023/03/24 06:55:49;;;;;;;6.80;6.15;;;;;;;;;;4969690;28;20027;-67
2023/03/24 06:58:16;;;;;;;7.40;5.93;;;;;;;;;;4968718;28;20089;-67
2023/03/24 07:01:05;;;;;;;;;;;;;;;;;;4973415;28;20050;-67
2023/03/24 07:03:38;;;;;;;6.20;5.60;;;;;;;;;;4968231;28;20345;-67
2023/03/24 07:06:28;;;;;;;5.65;4.82;;;;;;;;;;4973781;28;20128;-67
2023/03/24 07:08:57;;;;;;;6.18;5.55;;;;;;;;;;4969793;28;20038;-67
2023/03/24 07:11:26;;;;;;;5.38;4.97;;;;;;;;;;4967272;28;20116;-67
2023/03/24 07:13:55;;;;;;;5.78;5.28;;;;;;;;;;4970996;28;20041;-67
2023/03/24 07:16:21;;;;;;;5.90;5.30;;;;;;;;;;4972006;28;20042;-67
2023/03/24 07:18:53;;;;;;;5.28;4.75;;;;;;;;;;4968253;28;22630;-67
2023/03/24 07:21:19;;;;;;;5.50;5.05;;;;;;;;;;4968595;28;20035;-67
2023/03/24 07:23:48;;;;;;;5.38;4.95;;;;;;;;;;4969105;28;20038;-68
2023/03/24 07:26:15;;;;;;;5.32;4.88;;;;;;;;;;4986173;28;20069;-68
2023/03/24 07:28:47;;;;;;;6.95;5.35;;;;;;;;;;4968335;28;20046;-67
2023/03/24 07:31:23;;;;;;;8.50;6.03;;;;;;;;;;4983391;28;20042;-68
2023/03/24 07:33:55;;;;;;;6.10;5.50;;;;;;;;;;4968175;28;20443;-67
2023/03/24 07:36:21;;;;;;;5.53;5.07;;;;;;;;;;4971718;28;20501;-67
2023/03/24 07:38:47;;;;;;;6.72;5.97;;;;;;;;;;4969358;28;20510;-68
2023/03/24 07:41:21;;;;;;;6.45;5.82;;;;;;;;;;4967050;28;20038;-67
2023/03/24 07:43:51;;;;;;;6.97;6.38;;;;;;;;;;4972114;28;20117;-67
2023/03/24 07:46:22;;;;;;;6.93;6.32;;;;;;;;;;4969912;28;20217;-67
2023/03/24 07:48:48;;;;;;;7.00;6.38;;;;;;;;;;4970702;28;20071;-67
2023/03/24 07:51:18;;;;;;;7.43;6.28;;;;;;;;;;4967304;28;20487;-67
2023/03/24 07:53:55;;;;;;;6.95;6.35;;;;;;;;;;4984652;28;20146;-67
2023/03/24 07:56:28;;;;;;;7.50;6.15;;;;;;;;;;4970007;28;20039;-67
2023/03/24 07:58:57;;;;;;;7.53;6.80;;;;;;;;;;4968021;28;20074;-67
2023/03/24 08:01:35;;;;;;;7.43;6.72;;;;;;;;;;4971620;28;20062;-67
2023/03/24 08:04:03;;;;;;;6.95;6.25;;;;;;;;;;4972948;28;20034;-67
2023/03/24 08:06:49;;;;;;;7.20;6.32;;;;;;;;;;4965999;28;20365;-67
2023/03/24 08:09:15;;;;;;;7.78;7.00;;;;;;;;;;4966991;28;20062;-67
2023/03/24 08:11:40;;;;;;;7.00;6.32;;;;;;;;;;4974339;28;20436;-67
2023/03/24 08:14:06;;;;;;;9.05;6.93;;;;;;;;;;4975181;28;20085;-67
2023/03/24 08:16:32;;;;;;;9.27;6.65;;;;;;;;;;4967671;28;20529;-67
2023/03/24 08:18:58;;;;;;;9.25;6.82;;;;;;;;;;4971904;28;20042;-67
2023/03/24 08:21:24;;;;;;;7.57;6.97;;;;;;;;;;4971991;28;20030;-66
2023/03/24 08:23:50;;;;;;;8.23;7.20;;;;;;;;;;4973109;28;20038;-66
2023/03/24 08:26:15;;;;;;;7.38;6.70;;;;;;;;;;4971758;28;20031;-66
2023/03/24 08:28:41;;;;;;;7.45;6.70;;;;;;;;;;4972833;28;20541;-66
2023/03/24 08:31:07;;;;;;;7.53;6.93;;;;;;;;;;4973108;28;20529;-66
2023/03/24 08:33:34;;;;;;;7.78;7.07;;;;;;;;;;4968528;28;20053;-66
2023/03/24 08:35:59;;;;;;;7.68;6.97;;;;;;;;;;4968975;28;20041;-66
2023/03/24 08:38:30;;;;;;;9.35;7.07;;;;;;;;;;4969616;28;20030;-66
2023/03/24 08:41:01;;;;;;;7.63;6.75;;;;;;;;;;4974208;28;20047;-66
2023/03/24 08:43:30;;;;;;;7.50;6.80;;;;;;;;;;4970429;28;20050;-66
2023/03/24 08:45:57;;;;;;;8.20;7.40;;;;;;;;;;4968969;28;20039;-66
2023/03/24 08:48:23;;;;;;;6.68;6.05;;;;;;;;;;4970207;28;20038;-66
2023/03/24 08:50:49;;;;;;;6.85;6.25;;;;;;;;;;4974132;28;20441;-66
2023/03/24 08:53:15;;;;;;;6.50;6.00;;;;;;;;;;4964669;28;20033;-66
2023/03/24 08:55:42;;;;;;;7.10;6.55;;;;;;;;;;4970449;28;20038;-66
2023/03/24 08:58:27;;;;;;;7.43;6.75;;;;;;;;;;4968587;28;20038;-66
2023/03/24 09:00:53;;;;;;;8.13;6.80;;;;;;;;;;4971684;28;20046;-66
2023/03/24 09:03:21;;;;;;;7.03;6.38;;;;;;;;;;4970844;28;20043;-66
2023/03/24 09:05:47;;;;;;;7.53;6.38;;;;;;;;;;4972666;28;20482;-66
2023/03/24 09:08:15;;;;;;;7.38;6.72;;;;;;;;;;4967181;28;20038;-66
2023/03/24 09:10:42;;;;;;;7.70;6.50;;;;;;;;;;4970162;28;20039;-66
2023/03/24 09:13:08;;;;;;;7.25;6.65;;;;;;;;;;4971881;28;20039;-66
2023/03/24 09:15:34;;;;;;;9.18;6.30;;;;;;;;;;4970966;28;20030;-66
2023/03/24 09:18:00;;;;;;;6.90;6.30;;;;;;;;;;4967830;28;20042;-67
2023/03/24 09:20:26;;;;;;;7.28;6.40;;;;;;;;;;4973062;28;20034;-66
2023/03/24 09:22:52;;;;;;;7.75;6.95;;;;;;;;;;4969477;28;20031;-66
2023/03/24 09:25:19;;;;;;;7.13;6.53;;;;;;;;;;4971514;28;20679;-66
2023/03/24 09:27:45;;;;;;;7.68;6.97;;;;;;;;;;4971258;28;20403;-66
2023/03/24 09:30:13;;;;;;;7.78;6.80;;;;;;;;;;4971118;28;20041;-66
2023/03/24 09:32:39;;;;;;;7.50;6.80;;;;;;;;;;4972004;28;20042;-66
2023/03/24 09:35:07;;;;;;;6.40;5.90;;;;;;;;;;4977069;28;20035;-66
2023/03/24 09:37:34;;;;;;;8.05;7.00;;;;;;;;;;4974972;28;20034;-67
2023/03/24 09:40:00;;;;;;;7.13;6.38;;;;;;;;;;4972534;28;20041;-66
2023/03/24 09:42:31;;;;;;;6.63;6.03;;;;;;;;;;4971654;28;20117;-67
2023/03/24 09:44:58;;;;;;;9.38;6.20;;;;;;;;;;4973940;28;20061;-70
2023/03/24 09:47:33;;;;;;;6.00;5.50;;;;;;;;;;4975583;28;20114;-70
2023/03/24 09:50:07;;;;;;;8.93;5.80;;;;;;;;;;4968791;28;20042;-69
2023/03/24 09:52:38;;;;;;;5.40;5.00;;;;;;;;;;4977174;28;20097;-71
2023/03/24 09:55:05;;;;;;;9.40;5.38;;;;;;;;;;4975472;28;20050;-75
2023/03/24 09:57:36;;;;;;;5.55;5.10;;;;;;;;;;4970145;28;20046;-73
2023/03/24 10:00:23;;;;;;;4.88;4.57;;;;;;;;;;4972522;28;20561;-70
2023/03/24 10:02:50;;;;;;;6.03;5.53;;;;;;;;;;4969673;28;20109;-67
2023/03/24 10:05:16;;;;;;;5.75;5.35;;;;;;;;;;4974648;28;20479;-68
2023/03/24 10:07:51;;;;;;;7.43;5.85;;;;;;;;;;4974447;28;20562;-68
2023/03/24 10:10:35;;;;;;;5.88;5.47;;;;;;;;;;4967131;28;20031;-68
2023/03/24 10:13:07;;;;;;;5.20;4.82;;;;;;;;;;4970916;28;20039;-68
2023/03/24 10:15:43;;;;;;;5.68;5.18;;;;;;;;;;4968881;28;20046;-68
2023/03/24 10:18:12;;;;;;;5.43;4.93;;;;;;;;;;4967896;28;20129;-68
2023/03/24 10:20:50;;;;;;;5.63;5.15;;;;;;;;;;4972319;28;20606;-68
2023/03/24 10:23:28;;;;;;;4.95;4.55;;;;;;;;;;4971397;28;20106;-68
2023/03/24 10:26:09;;;;;;;5.30;4.80;;;;;;;;;;4968396;28;20026;-67
2023/03/24 10:28:51;;;;;;;5.07;4.68;;;;;;;;;;4969666;28;20101;-68
2023/03/24 10:31:25;;;;;;;4.90;4.60;;;;;;;;;;4968077;28;20057;-68
2023/03/24 10:33:51;;;;;;;5.20;4.80;;;;;;;;;;4969851;28;20395;-68
2023/03/24 10:36:19;;;;;;;5.45;4.45;;;;;;;;;;4969410;28;20035;-67
2023/03/24 10:38:45;;;;;;;5.00;4.60;;;;;;;;;;4970309;28;20038;-67
2023/03/24 10:41:23;;;;;;;5.00;4.60;;;;;;;;;;4972211;28;20042;-68
2023/03/24 10:43:55;;;;;;;4.35;4.05;;;;;;;;;;4967212;28;20045;-68
2023/03/24 10:46:24;;;;;;;5.07;4.60;;;;;;;;;;4969100;28;20045;-68
2023/03/24 10:49:07;;;;;;;4.78;4.47;;;;;;;;;;4970340;28;20791;-67
2023/03/24 10:51:36;;;;;;;4.85;4.55;;;;;;;;;;4958066;28;20038;-67
2023/03/24 10:54:09;;;;;;;;;;;;;;;;;;4961597;28;20037;-67
2023/03/24 10:56:44;;;;;;;4.72;4.43;;;;;;;;;;4963779;28;20429;-67
2023/03/24 10:59:33;;;;;;;4.50;4.20;;;;;;;;;;4955124;28;20045;-67
2023/03/24 11:02:20;;;;;;;4.47;4.18;;;;;;;;;;4967947;28;20061;-67
2023/03/24 11:05:04;;;;;;;4.22;3.88;;;;;;;;;;4968651;28;20101;-67
2023/03/24 11:07:38;;;;;;;4.40;4.20;;;;;;;;;;4970375;28;20646;-67
2023/03/24 11:10:09;;;;;;;4.32;4.03;;;;;;;;;;4968568;28;20042;-67
2023/03/24 11:12:56;;;;;;;4.30;4.10;;;;;;;;;;4969960;28;20142;-67
2023/03/24 11:15:33;;;;;;;4.30;4.10;;;;;;;;;;4966952;28;20034;-64
2023/03/24 11:18:11;;;;;;;4.30;4.10;;;;;;;;;;4968148;28;20027;-67
2023/03/24 11:20:45;;;;;;;4.55;4.25;;;;;;;;;;4969543;28;20035;-66
2023/03/24 11:23:19;;;;;;;4.90;4.60;;;;;;;;;;4969112;28;20058;-67
2023/03/24 11:26:12;;;;;;;4.80;4.50;;;;;;;;;;4968713;28;20081;-67
2023/03/24 11:28:41;;;;;;;4.60;4.30;;;;;;;;;;4967716;28;20054;-66
2023/03/24 11:31:09;;;;;;;;;;;;;;;;;;4970746;28;20561;-66
2023/03/24 11:33:42;;;;;;;4.50;4.30;;;;;;;;;;4967513;28;19914;-66
2023/03/24 11:36:34;;;;;;;4.00;3.80;;;;;;;;;;4969292;28;20491;-66
2023/03/24 11:39:08;;;;;;;4.20;3.90;;;;;;;;;;4970454;28;20057;-67
2023/03/24 11:41:36;;;;;;;4.45;4.07;;;;;;;;;;4967611;28;20023;-67
2023/03/24 11:44:23;;;;;;;3.90;3.60;;;;;;;;;;4968422;28;20027;-66
2023/03/24 11:46:56;;;;;;;4.40;4.10;;;;;;;;;;4970142;28;20038;-66
2023/03/24 11:49:26;;;;;;;4.60;4.20;;;;;;;;;;4967796;28;20033;-67
2023/03/24 11:51:54;;;;;;;4.20;4.00;;;;;;;;;;4966131;28;20045;-66
2023/03/24 11:54:26;;;;;;;4.22;4.03;;;;;;;;;;4974199;28;20565;-67
2023/03/24 11:56:52;;;;;;;4.97;3.88;;;;;;;;;;4967126;28;20039;-67
2023/03/24 12:00:00;;;;;;;4.43;4.22;;;;;;;;;;4967269;28;20481;-67
2023/03/24 12:02:44;;;;;;;4.40;4.10;;;;;;;;;;4927499;29;20039;-67
2023/03/24 12:05:12;;;;;;;4.60;4.25;;;;;;;;;;4937000;28;20149;-67
2023/03/24 12:07:44;;;;;;;4.45;4.25;;;;;;;;;;4944276;28;20135;-66
2023/03/24 12:10:59;;;;;;;4.20;4.00;;;;;;;;;;4944086;28;20146;-67
2023/03/24 12:13:34;;;;;;;7.50;3.65;;;;;;;;;;4889956;29;20052;-66
2023/03/24 12:16:23;;;;;;;4.10;3.90;;;;;;;;;;4894069;29;20063;-66
2023/03/24 12:18:57;;;;;;;4.40;4.20;;;;;;;;;;4888842;29;20052;-68
2023/03/24 12:21:50;;;;;;;3.97;3.78;;;;;;;;;;4885069;29;20319;-68
2023/03/24 12:24:36;;;;;;;4.28;3.97;;;;;;;;;;4895026;29;20048;-68
2023/03/24 12:27:02;;;;;;;3.97;3.78;;;;;;;;;;4890635;29;20506;-67
2023/03/24 12:29:35;;;;;;;4.05;3.85;;;;;;;;;;4891297;29;20052;-67
2023/03/24 12:32:19;;;;;;;4.35;4.13;;;;;;;;;;4889722;29;20134;-67
2023/03/24 12:34:54;;;;;;;4.25;4.00;;;;;;;;;;4893640;29;20032;-67
2023/03/24 12:37:45;;;;;;;4.60;4.40;;;;;;;;;;4914617;29;20064;-68
2023/03/24 12:40:35;;;;;;;5.28;3.78;;;;;;;;;;4913799;29;20048;-67
2023/03/24 12:43:20;;;;;;;4.13;3.90;;;;;;;;;;4920994;28;20473;-67
2023/03/24 12:45:52;;;;;;;3.97;3.78;;;;;;;;;;4965892;28;20114;-66
2023/03/24 12:48:47;;;;;;;4.38;4.18;;;;;;;;;;4965585;28;20034;-66
2023/03/24 12:51:12;;;;;;;4.25;4.00;;;;;;;;;;4960630;28;20054;-67
2023/03/24 12:54:12;;;;;;;4.40;4.20;;;;;;;;;;4966493;28;20034;-67
2023/03/24 12:56:57;;;;;;;4.40;4.20;;;;;;;;;;4963714;28;20495;-67
2023/03/24 12:59:32;;;;;;;3.80;3.60;;;;;;;;;;4963234;28;20062;-67
2023/03/24 13:02:11;;;;;;;4.38;4.00;;;;;;;;;;4966485;28;20030;-67
2023/03/24 13:04:40;;;;;;;4.15;3.95;;;;;;;;;;4965002;28;20050;-67
2023/03/24 13:07:10;;;;;;;4.10;3.80;;;;;;;;;;4964743;28;20042;-67
2023/03/24 13:10:05;;;;;;;4.03;3.83;;;;;;;;;;4962753;28;20400;-67
2023/03/24 13:12:36;;;;;;;4.00;3.80;;;;;;;;;;4964370;28;20046;-67
2023/03/24 13:15:10;;;;;;;3.90;3.70;;;;;;;;;;4966709;28;20490;-67
2023/03/24 13:17:47;;;;;;;4.00;3.80;;;;;;;;;;4965322;28;20047;-67
2023/03/24 13:20:22;;;;;;;4.07;3.88;;;;;;;;;;4963809;28;20541;-67
2023/03/24 13:22:49;;;;;;;4.18;3.97;;;;;;;;;;4965763;28;20042;-67
2023/03/24 13:25:33;;;;;;;4.22;3.83;;;;;;;;;;4968619;28;20104;-67
2023/03/24 13:28:06;;;;;;;4.18;3.97;;;;;;;;;;4963346;28;20089;-67
2023/03/24 13:30:41;;;;;;;4.13;3.92;;;;;;;;;;4965973;28;20038;-67
2023/03/24 13:33:14;;;;;;;4.32;3.70;;;;;;;;;;4968291;28;20046;-67
2023/03/24 13:36:17;;;;;;;4.40;4.20;;;;;;;;;;4966741;28;20046;-67
2023/03/24 13:38:51;;;;;;;4.30;4.10;;;;;;;;;;4964434;28;20110;-66
2023/03/24 13:41:19;;;;;;;4.50;4.28;;;;;;;;;;4966720;28;20038;-67
2023/03/24 13:43:50;;;;;;;3.95;3.75;;;;;;;;;;4968469;28;20043;-67
2023/03/24 13:46:16;;;;;;;4.70;4.40;;;;;;;;;;4968713;28;20039;-67
2023/03/24 13:48:45;;;;;;;3.83;3.63;;;;;;;;;;4964818;28;20097;-67
2023/03/24 13:51:30;;;;;;;7.83;5.10;;;;;;;;;;4967087;28;20038;-67
2023/03/24 13:54:02;;;;;;;4.40;4.10;;;;;;;;;;4970166;28;20290;-67
2023/03/24 13:56:34;;;;;;;4.78;4.47;;;;;;;;;;4963989;28;20085;-67
2023/03/24 13:59:27;;;;;;;4.07;3.85;;;;;;;;;;4968269;28;20039;-67
2023/03/24 14:02:19;;;;;;;4.20;4.00;;;;;;;;;;4968840;28;20035;-67
2023/03/24 14:04:47;;;;;;;4.20;4.00;;;;;;;;;;4968355;28;20061;-67
2023/03/24 14:07:37;;;;;;;4.88;4.47;;;;;;;;;;4968784;28;20054;-67
2023/03/24 14:10:19;;;;;;;3.80;3.60;;;;;;;;;;4969770;28;20035;-67
2023/03/24 14:12:57;;;;;;;4.00;3.80;;;;;;;;;;4971527;28;20030;-67
2023/03/24 14:15:53;;;;;;;4.07;3.80;;;;;;;;;;4967060;28;20685;-67
2023/03/24 14:18:21;;;;;;;4.30;4.00;;;;;;;;;;4948852;28;20923;-67
2023/03/24 14:20:56;;;;;;;4.60;4.30;;;;;;;;;;4972533;28;20046;-66
2023/03/24 14:23:31;;;;;;;4.57;4.28;;;;;;;;;;4967681;28;20029;-67
2023/03/24 14:25:57;;;;;;;6.93;4.60;;;;;;;;;;4969788;28;20050;-67
2023/03/24 14:28:37;;;;;;;4.50;4.20;;;;;;;;;;4971420;28;20035;-67
2023/03/24 14:31:14;;;;;;;5.20;4.22;;;;;;;;;;4967471;28;20094;-66
2023/03/24 14:33:51;;;;;;;4.28;4.05;;;;;;;;;;4968140;28;20039;-67
2023/03/24 14:36:29;;;;;;;3.90;3.70;;;;;;;;;;4972613;28;20455;-67
2023/03/24 14:38:56;;;;;;;4.10;3.90;;;;;;;;;;4969532;28;20553;-67
2023/03/24 14:41:30;;;;;;;4.07;3.88;;;;;;;;;;4970449;28;20039;-66
2023/03/24 14:43:59;;;;;;;3.90;3.70;;;;;;;;;;4971752;28;20419;-67
2023/03/24 14:46:40;;;;;;;3.80;3.60;;;;;;;;;;4968663;28;20092;-67
2023/03/24 14:49:31;;;;;;;4.22;4.03;;;;;;;;;;4968032;28;20046;-66
2023/03/24 14:52:10;;;;;;;4.95;4.65;;;;;;;;;;4972548;28;20027;-66
2023/03/24 14:54:44;;;;;;;4.13;3.92;;;;;;;;;;4969077;28;20798;-67
2023/03/24 14:57:19;;;;;;;6.30;4.30;;;;;;;;;;4967741;28;20061;-66
2023/03/24 15:00:10;;;;;;;4.68;4.32;;;;;;;;;;4969293;28;20113;-67
2023/03/24 15:02:51;;;;;;;5.78;5.28;;;;;;;;;;4968861;28;20034;-67
2023/03/24 15:05:28;;;;;;;4.68;4.22;;;;;;;;;;4966708;28;20046;-66
2023/03/24 15:08:22;;;;;;;4.30;4.10;;;;;;;;;;4969991;28;20092;-66
2023/03/24 15:11:06;;;;;;;6.60;6.00;;;;;;;;;;4969970;28;20035;-66
2023/03/24 15:13:41;;;;;;;4.43;4.13;;;;;;;;;;4965887;28;20093;-67
2023/03/24 15:16:18;;;;;;;4.95;4.40;;;;;;;;;;4970162;28;20039;-67
2023/03/24 15:18:55;;;;;;;4.07;3.80;;;;;;;;;;4968998;28;20042;-67
2023/03/24 15:21:35;;;;;;;4.70;4.45;;;;;;;;;;4966801;28;20138;-67
2023/03/24 15:24:21;;;;;;;4.38;4.15;;;;;;;;;;4968090;28;20428;-67
2023/03/24 15:26:52;;;;;;;4.60;4.40;;;;;;;;;;4972388;28;20558;-67
2023/03/24 15:29:17;;;;;;;4.40;4.20;;;;;;;;;;4969965;28;20038;-67
2023/03/24 15:31:43;;;;;;;4.80;4.50;;;;;;;;;;4965140;28;20043;-67